MST,Max TemperatureF,Mean TemperatureF,Min TemperatureF,Max Dew PointF,MeanDew PointF,Min DewpointF,Max Humidity, Mean Humidity, Min Humidity, Max Sea Level PressureIn, Mean Sea Level PressureIn, Min Sea Level PressureIn, Max VisibilityMiles, Mean VisibilityMiles, Min VisibilityMiles, Max Wind SpeedMPH, Mean Wind SpeedMPH, Max Gust SpeedMPH,PrecipitationIn, CloudCover, Events, WindDirDegrees
2012-2-1,35,25,15,28,20,13,92,70,47,30.19,30.12,30.04,10,8,2,8,2,10,0.02,6,Snow,15
2012-2-2,36,28,19,27,18,14,92,66,40,30.36,30.30,30.20,10,10,10,13,4,16,0.00,7,,325
2012-2-3,35,22,8,15,13,8,88,68,47,30.51,30.46,30.35,10,10,10,8,1,10,0.00,1,,300
2012-2-4,34,20,6,15,10,3,91,67,43,30.64,30.54,30.44,10,10,8,6,1,7,0.00,0,,214
2012-2-5,35,20,5,13,10,5,92,67,41,30.58,30.45,30.33,10,10,9,8,1,9,0.00,0,,115
2012-2-6,35,20,5,14,9,2,92,67,41,30.47,30.38,30.30,10,10,9,5,1,6,0.00,0,,260
2012-2-7,37,22,6,13,10,3,91,65,38,30.39,30.30,30.17,10,10,10,6,1,8,0.00,0,,245
2012-2-8,34,23,12,18,13,8,88,68,47,30.41,30.36,30.27,10,10,6,6,0,6,0.00,4,,230
2012-2-9,45,33,20,25,21,16,84,65,45,30.42,30.34,30.24,10,10,9,7,1,8,0.00,7,,311
2012-2-10,45,35,24,31,27,24,92,75,57,30.21,30.14,30.05,10,10,9,7,1,7,T,6,Rain,352
2012-2-11,40,31,22,34,30,21,100,88,75,30.09,29.99,29.90,10,9,2,7,1,8,T,7,Rain-Snow,320
2012-2-12,45,36,26,34,30,24,100,75,49,29.91,29.84,29.74,10,9,1,8,1,10,0.00,7,,2
2012-2-13,41,32,22,25,23,19,96,69,41,29.84,29.78,29.74,10,10,10,8,2,9,0.00,6,,236
2012-2-14,41,32,23,24,17,10,78,54,30,29.86,29.78,29.69,10,10,10,13,4,18,0.00,4,,340
2012-2-15,37,26,14,17,13,10,80,59,38,30.33,30.12,29.86,10,10,10,13,4,16,0.00,2,,356
2012-2-16,34,22,9,19,12,6,84,60,35,30.46,30.36,30.25,10,10,8,8,1,12,0.00,3,,240
2012-2-17,45,35,24,21,18,16,81,56,31,30.27,30.18,30.10,10,10,10,12,2,15,0.00,3,,197
2012-2-18,35,24,12,28,22,11,100,85,69,30.07,29.94,29.83,10,7,0,18,4,25,0.13,7,Fog-Snow,355
2012-2-19,31,18,5,16,11,5,92,70,47,30.08,30.03,29.97,10,10,10,9,2,13,0.00,4,,173
2012-2-20,31,20,9,21,12,6,83,65,46,30.12,30.07,30.02,10,10,10,9,2,12,0.00,6,,331
2012-2-21,49,37,24,31,25,20,88,69,50,30.07,29.99,29.91,10,10,10,18,4,24,0.00,8,,224
2012-2-22,48,36,24,34,26,8,79,57,35,29.93,29.76,29.61,10,10,8,29,10,38,T,7,Rain-Snow,267
2012-2-23,39,29,18,21,13,5,88,57,25,30.23,30.12,29.95,10,10,3,18,6,22,T,6,Snow,282
2012-2-24,43,29,14,17,12,8,74,52,30,30.36,30.17,29.83,10,10,10,9,2,12,0.00,1,,30
2012-2-25,35,29,23,30,16,3,92,60,28,30.02,29.70,29.49,10,8,1,25,9,33,0.02,5,Snow,269
2012-2-26,32,27,21,11,6,1,59,44,28,30.13,30.05,29.99,10,10,10,16,5,21,0.00,7,,196
2012-2-27,34,25,16,14,9,7,74,53,32,30.00,29.93,29.85,10,10,10,9,2,12,0.00,3,,227
2012-2-28,40,24,8,11,8,4,83,55,27,29.93,29.89,29.83,10,10,10,15,3,20,0.00,1,,211
2012-2-29,36,26,16,27,16,4,77,52,27,29.85,29.71,29.57,10,8,1,24,8,33,0.01,6,Snow,236